sensor_id;sensor_type;location;lat;lon;timestamp;temperature;humidity
15355;DHT22;7777;52.254;9.618;2022-07-15T00:01:16;15.20;89.90
15355;DHT22;7777;52.254;9.618;2022-07-15T00:03:42;15.10;89.30
15355;DHT22;7777;52.254;9.618;2022-07-15T00:06:07;15.20;89.10
15355;DHT22;7777;52.254;9.618;2022-07-15T00:08:33;15.10;90.10
15355;DHT22;7777;52.254;9.618;2022-07-15T00:10:59;15.10;90.00
15355;DHT22;7777;52.254;9.618;2022-07-15T00:13:25;15.20;89.10
15355;DHT22;7777;52.254;9.618;2022-07-15T00:15:51;15.20;90.10
15355;DHT22;7777;52.254;9.618;2022-07-15T00:18:17;15.10;90.20
15355;DHT22;7777;52.254;9.618;2022-07-15T00:20:43;15.20;90.10
15355;DHT22;7777;52.254;9.618;2022-07-15T00:23:08;15.10;90.00
15355;DHT22;7777;52.254;9.618;2022-07-15T00:25:34;15.10;90.50
15355;DHT22;7777;52.254;9.618;2022-07-15T00:28:01;15.10;89.60
15355;DHT22;7777;52.254;9.618;2022-07-15T00:30:33;15.10;90.00
15355;DHT22;7777;52.254;9.618;2022-07-15T00:33:01;15.10;89.90
15355;DHT22;7777;52.254;9.618;2022-07-15T00:35:28;15.10;90.00
15355;DHT22;7777;52.254;9.618;2022-07-15T00:37:54;15.10;90.20
15355;DHT22;7777;52.254;9.618;2022-07-15T00:40:20;15.10;90.40
15355;DHT22;7777;52.254;9.618;2022-07-15T00:42:46;15.10;90.20
15355;DHT22;7777;52.254;9.618;2022-07-15T00:45:14;15.10;89.50
15355;DHT22;7777;52.254;9.618;2022-07-15T00:47:47;15.10;89.80
15355;DHT22;7777;52.254;9.618;2022-07-15T00:50:15;15.10;90.20
15355;DHT22;7777;52.254;9.618;2022-07-15T00:52:44;15.10;90.20
15355;DHT22;7777;52.254;9.618;2022-07-15T00:55:22;15.10;90.40
15355;DHT22;7777;52.254;9.618;2022-07-15T00:57:50;15.10;90.40
15355;DHT22;7777;52.254;9.618;2022-07-15T01:00:17;15.10;90.50
15355;DHT22;7777;52.254;9.618;2022-07-15T01:02:44;15.10;90.50
15355;DHT22;7777;52.254;9.618;2022-07-15T01:05:17;15.10;90.50
15355;DHT22;7777;52.254;9.618;2022-07-15T01:07:47;15.10;90.40
15355;DHT22;7777;52.254;9.618;2022-07-15T01:10:19;15.10;90.40
15355;DHT22;7777;52.254;9.618;2022-07-15T01:12:47;15.10;90.50
15355;DHT22;7777;52.254;9.618;2022-07-15T01:15:14;15.10;90.20
15355;DHT22;7777;52.254;9.618;2022-07-15T01:17:41;15.20;90.40
15355;DHT22;7777;52.254;9.618;2022-07-15T01:20:07;15.10;90.80
15355;DHT22;7777;52.254;9.618;2022-07-15T01:22:33;15.10;90.80
15355;DHT22;7777;52.254;9.618;2022-07-15T01:25:00;15.10;90.70
15355;DHT22;7777;52.254;9.618;2022-07-15T01:27:26;15.10;91.00
15355;DHT22;7777;52.254;9.618;2022-07-15T01:29:53;15.00;91.20
15355;DHT22;7777;52.254;9.618;2022-07-15T01:32:18;15.00;90.90
15355;DHT22;7777;52.254;9.618;2022-07-15T01:34:51;15.00;91.00
15355;DHT22;7777;52.254;9.618;2022-07-15T01:37:18;14.90;91.20
15355;DHT22;7777;52.254;9.618;2022-07-15T01:39:44;14.90;91.30
15355;DHT22;7777;52.254;9.618;2022-07-15T01:42:10;14.80;91.20
15355;DHT22;7777;52.254;9.618;2022-07-15T01:44:36;14.80;91.40
15355;DHT22;7777;52.254;9.618;2022-07-15T01:47:03;14.80;91.50
15355;DHT22;7777;52.254;9.618;2022-07-15T01:49:28;14.70;91.30
15355;DHT22;7777;52.254;9.618;2022-07-15T01:51:59;14.70;91.40
15355;DHT22;7777;52.254;9.618;2022-07-15T01:54:27;14.70;91.70
15355;DHT22;7777;52.254;9.618;2022-07-15T01:56:54;14.60;91.80
15355;DHT22;7777;52.254;9.618;2022-07-15T01:59:21;14.60;92.00
15355;DHT22;7777;52.254;9.618;2022-07-15T02:01:49;14.50;91.70
15355;DHT22;7777;52.254;9.618;2022-07-15T02:04:16;14.50;92.00
15355;DHT22;7777;52.254;9.618;2022-07-15T02:06:41;14.50;92.20
15355;DHT22;7777;52.254;9.618;2022-07-15T02:09:08;14.40;92.10
15355;DHT22;7777;52.254;9.618;2022-07-15T02:11:34;14.40;91.90
15355;DHT22;7777;52.254;9.618;2022-07-15T02:14:01;14.40;92.10
15355;DHT22;7777;52.254;9.618;2022-07-15T02:16:31;14.30;92.30
15355;DHT22;7777;52.254;9.618;2022-07-15T02:18:57;14.30;92.50
15355;DHT22;7777;52.254;9.618;2022-07-15T02:21:24;14.30;92.50
15355;DHT22;7777;52.254;9.618;2022-07-15T02:23:52;14.20;92.50
15355;DHT22;7777;52.254;9.618;2022-07-15T02:26:19;14.20;92.40
15355;DHT22;7777;52.254;9.618;2022-07-15T02:28:45;14.20;92.50
15355;DHT22;7777;52.254;9.618;2022-07-15T02:31:11;14.10;92.30
15355;DHT22;7777;52.254;9.618;2022-07-15T02:33:37;14.10;92.50
15355;DHT22;7777;52.254;9.618;2022-07-15T02:36:04;14.00;92.40
15355;DHT22;7777;52.254;9.618;2022-07-15T02:38:29;14.00;92.30
15355;DHT22;7777;52.254;9.618;2022-07-15T02:40:58;14.00;92.40
15355;DHT22;7777;52.254;9.618;2022-07-15T02:43:24;14.00;92.30
15355;DHT22;7777;52.254;9.618;2022-07-15T02:45:50;13.90;92.50
15355;DHT22;7777;52.254;9.618;2022-07-15T02:48:16;13.90;92.30
15355;DHT22;7777;52.254;9.618;2022-07-15T02:50:42;13.90;92.30
15355;DHT22;7777;52.254;9.618;2022-07-15T02:53:08;13.80;92.20
15355;DHT22;7777;52.254;9.618;2022-07-15T02:55:34;13.80;92.30
15355;DHT22;7777;52.254;9.618;2022-07-15T02:58:00;13.80;92.30
15355;DHT22;7777;52.254;9.618;2022-07-15T03:00:26;13.70;92.10
15355;DHT22;7777;52.254;9.618;2022-07-15T03:02:52;13.70;92.30
15355;DHT22;7777;52.254;9.618;2022-07-15T03:05:18;13.70;92.20
15355;DHT22;7777;52.254;9.618;2022-07-15T03:07:45;13.60;92.40
15355;DHT22;7777;52.254;9.618;2022-07-15T03:10:12;13.60;92.30
15355;DHT22;7777;52.254;9.618;2022-07-15T03:12:38;13.60;92.20
15355;DHT22;7777;52.254;9.618;2022-07-15T03:15:05;13.50;92.20
15355;DHT22;7777;52.254;9.618;2022-07-15T03:17:31;13.50;92.10
15355;DHT22;7777;52.254;9.618;2022-07-15T03:19:57;13.50;92.10
15355;DHT22;7777;52.254;9.618;2022-07-15T03:22:24;13.50;92.00
15355;DHT22;7777;52.254;9.618;2022-07-15T03:24:51;13.40;92.20
15355;DHT22;7777;52.254;9.618;2022-07-15T03:27:17;13.40;92.10
15355;DHT22;7777;52.254;9.618;2022-07-15T03:29:43;13.40;92.30
15355;DHT22;7777;52.254;9.618;2022-07-15T03:32:10;13.40;91.90
15355;DHT22;7777;52.254;9.618;2022-07-15T03:34:37;13.40;92.20
15355;DHT22;7777;52.254;9.618;2022-07-15T03:37:03;13.30;92.00
15355;DHT22;7777;52.254;9.618;2022-07-15T03:39:29;13.40;92.20
15355;DHT22;7777;52.254;9.618;2022-07-15T03:41:55;13.30;92.20
15355;DHT22;7777;52.254;9.618;2022-07-15T03:44:21;13.30;92.10
15355;DHT22;7777;52.254;9.618;2022-07-15T03:46:47;13.30;92.30
15355;DHT22;7777;52.254;9.618;2022-07-15T03:49:15;13.20;92.40
15355;DHT22;7777;52.254;9.618;2022-07-15T03:51:42;13.30;92.20
15355;DHT22;7777;52.254;9.618;2022-07-15T03:54:09;13.20;92.30
15355;DHT22;7777;52.254;9.618;2022-07-15T03:56:35;13.20;92.30
15355;DHT22;7777;52.254;9.618;2022-07-15T03:59:01;13.30;92.30
15355;DHT22;7777;52.254;9.618;2022-07-15T04:01:27;13.30;92.50
15355;DHT22;7777;52.254;9.618;2022-07-15T04:03:53;13.30;92.20
15355;DHT22;7777;52.254;9.618;2022-07-15T04:06:25;13.30;91.80
15355;DHT22;7777;52.254;9.618;2022-07-15T04:08:51;13.30;92.20
15355;DHT22;7777;52.254;9.618;2022-07-15T04:11:18;13.30;92.30
15355;DHT22;7777;52.254;9.618;2022-07-15T04:13:44;13.30;92.10
15355;DHT22;7777;52.254;9.618;2022-07-15T04:16:10;13.30;92.00
15355;DHT22;7777;52.254;9.618;2022-07-15T04:18:39;13.40;91.70
15355;DHT22;7777;52.254;9.618;2022-07-15T04:21:05;13.40;91.60
15355;DHT22;7777;52.254;9.618;2022-07-15T04:23:31;13.40;91.60
15355;DHT22;7777;52.254;9.618;2022-07-15T04:25:57;13.50;91.50
15355;DHT22;7777;52.254;9.618;2022-07-15T04:28:24;13.60;91.40
15355;DHT22;7777;52.254;9.618;2022-07-15T04:30:50;13.60;91.20
15355;DHT22;7777;52.254;9.618;2022-07-15T04:33:16;13.60;91.20
15355;DHT22;7777;52.254;9.618;2022-07-15T04:35:43;13.70;91.50
15355;DHT22;7777;52.254;9.618;2022-07-15T04:38:09;13.80;91.40
15355;DHT22;7777;52.254;9.618;2022-07-15T04:40:36;13.80;91.80
15355;DHT22;7777;52.254;9.618;2022-07-15T04:43:03;13.90;91.50
15355;DHT22;7777;52.254;9.618;2022-07-15T04:45:29;14.00;92.20
15355;DHT22;7777;52.254;9.618;2022-07-15T04:47:55;14.00;92.40
15355;DHT22;7777;52.254;9.618;2022-07-15T04:50:21;14.10;91.80
15355;DHT22;7777;52.254;9.618;2022-07-15T04:53:06;14.20;91.90
15355;DHT22;7777;52.254;9.618;2022-07-15T04:55:32;14.30;91.90
15355;DHT22;7777;52.254;9.618;2022-07-15T04:57:58;14.30;92.00
15355;DHT22;7777;52.254;9.618;2022-07-15T05:00:24;14.40;91.80
15355;DHT22;7777;52.254;9.618;2022-07-15T05:02:50;14.50;92.10
15355;DHT22;7777;52.254;9.618;2022-07-15T05:05:16;14.50;92.20
15355;DHT22;7777;52.254;9.618;2022-07-15T05:07:41;14.60;92.80
15355;DHT22;7777;52.254;9.618;2022-07-15T05:10:08;14.70;92.00
15355;DHT22;7777;52.254;9.618;2022-07-15T05:12:35;14.80;92.00
15355;DHT22;7777;52.254;9.618;2022-07-15T05:15:01;14.80;92.70
15355;DHT22;7777;52.254;9.618;2022-07-15T05:17:28;14.90;92.80
15355;DHT22;7777;52.254;9.618;2022-07-15T05:19:54;14.90;92.00
15355;DHT22;7777;52.254;9.618;2022-07-15T05:22:20;15.00;92.00
15355;DHT22;7777;52.254;9.618;2022-07-15T05:24:46;15.10;92.30
15355;DHT22;7777;52.254;9.618;2022-07-15T05:27:12;15.10;92.10
15355;DHT22;7777;52.254;9.618;2022-07-15T05:29:38;15.20;92.20
15355;DHT22;7777;52.254;9.618;2022-07-15T05:32:05;15.30;92.30
15355;DHT22;7777;52.254;9.618;2022-07-15T05:34:31;15.30;92.20
15355;DHT22;7777;52.254;9.618;2022-07-15T05:36:57;15.30;92.10
15355;DHT22;7777;52.254;9.618;2022-07-15T05:39:23;15.40;92.20
15355;DHT22;7777;52.254;9.618;2022-07-15T05:41:49;15.40;92.30
15355;DHT22;7777;52.254;9.618;2022-07-15T05:44:16;15.40;92.30
15355;DHT22;7777;52.254;9.618;2022-07-15T05:46:42;15.50;92.10
15355;DHT22;7777;52.254;9.618;2022-07-15T05:49:08;15.60;92.10
15355;DHT22;7777;52.254;9.618;2022-07-15T05:51:36;15.60;92.10
15355;DHT22;7777;52.254;9.618;2022-07-15T05:54:02;15.70;92.20
15355;DHT22;7777;52.254;9.618;2022-07-15T05:56:28;15.70;92.30
15355;DHT22;7777;52.254;9.618;2022-07-15T05:58:54;15.70;92.00
15355;DHT22;7777;52.254;9.618;2022-07-15T06:01:20;15.80;92.10
15355;DHT22;7777;52.254;9.618;2022-07-15T06:03:47;15.90;92.20
15355;DHT22;7777;52.254;9.618;2022-07-15T06:06:12;15.90;92.00
15355;DHT22;7777;52.254;9.618;2022-07-15T06:08:39;15.90;92.20
15355;DHT22;7777;52.254;9.618;2022-07-15T06:11:04;16.00;92.10
15355;DHT22;7777;52.254;9.618;2022-07-15T06:13:30;16.00;92.10
15355;DHT22;7777;52.254;9.618;2022-07-15T06:15:56;16.10;92.10
15355;DHT22;7777;52.254;9.618;2022-07-15T06:18:22;16.10;91.90
15355;DHT22;7777;52.254;9.618;2022-07-15T06:20:48;16.20;91.90
15355;DHT22;7777;52.254;9.618;2022-07-15T06:23:13;16.20;91.80
15355;DHT22;7777;52.254;9.618;2022-07-15T06:25:39;16.30;91.90
15355;DHT22;7777;52.254;9.618;2022-07-15T06:28:05;16.30;91.80
15355;DHT22;7777;52.254;9.618;2022-07-15T06:30:31;16.40;91.80
15355;DHT22;7777;52.254;9.618;2022-07-15T06:32:57;16.40;91.70
15355;DHT22;7777;52.254;9.618;2022-07-15T06:35:23;16.40;91.70
15355;DHT22;7777;52.254;9.618;2022-07-15T06:37:50;16.50;91.60
15355;DHT22;7777;52.254;9.618;2022-07-15T06:40:17;16.60;91.80
15355;DHT22;7777;52.254;9.618;2022-07-15T06:42:43;16.60;91.60
15355;DHT22;7777;52.254;9.618;2022-07-15T06:45:09;16.60;91.80
15355;DHT22;7777;52.254;9.618;2022-07-15T06:47:38;16.70;91.90
15355;DHT22;7777;52.254;9.618;2022-07-15T06:50:05;16.70;91.60
15355;DHT22;7777;52.254;9.618;2022-07-15T06:52:31;16.80;91.70
15355;DHT22;7777;52.254;9.618;2022-07-15T06:54:57;16.90;91.50
15355;DHT22;7777;52.254;9.618;2022-07-15T06:57:22;16.90;91.30
15355;DHT22;7777;52.254;9.618;2022-07-15T06:59:49;17.00;91.30
15355;DHT22;7777;52.254;9.618;2022-07-15T07:02:15;17.10;91.20
15355;DHT22;7777;52.254;9.618;2022-07-15T07:04:41;17.10;91.20
15355;DHT22;7777;52.254;9.618;2022-07-15T07:07:10;17.20;90.90
15355;DHT22;7777;52.254;9.618;2022-07-15T07:09:36;17.20;90.80
15355;DHT22;7777;52.254;9.618;2022-07-15T07:12:02;17.20;90.70
15355;DHT22;7777;52.254;9.618;2022-07-15T07:14:28;17.30;90.80
15355;DHT22;7777;52.254;9.618;2022-07-15T07:16:54;17.30;90.80
15355;DHT22;7777;52.254;9.618;2022-07-15T07:19:20;17.30;90.80
15355;DHT22;7777;52.254;9.618;2022-07-15T07:21:46;17.40;90.80
15355;DHT22;7777;52.254;9.618;2022-07-15T07:24:12;17.40;90.50
15355;DHT22;7777;52.254;9.618;2022-07-15T07:26:38;17.50;90.40
15355;DHT22;7777;52.254;9.618;2022-07-15T07:29:04;17.50;90.00
15355;DHT22;7777;52.254;9.618;2022-07-15T07:31:30;17.50;90.00
15355;DHT22;7777;52.254;9.618;2022-07-15T07:33:57;17.60;90.00
15355;DHT22;7777;52.254;9.618;2022-07-15T07:36:24;17.60;89.40
15355;DHT22;7777;52.254;9.618;2022-07-15T07:38:50;17.70;89.60
15355;DHT22;7777;52.254;9.618;2022-07-15T07:41:16;17.80;89.70
15355;DHT22;7777;52.254;9.618;2022-07-15T07:43:42;17.80;89.40
15355;DHT22;7777;52.254;9.618;2022-07-15T07:46:10;17.90;89.50
15355;DHT22;7777;52.254;9.618;2022-07-15T07:48:38;17.90;89.40
15355;DHT22;7777;52.254;9.618;2022-07-15T07:51:05;17.90;89.40
15355;DHT22;7777;52.254;9.618;2022-07-15T07:53:31;17.90;89.40
15355;DHT22;7777;52.254;9.618;2022-07-15T07:55:56;17.90;89.70
15355;DHT22;7777;52.254;9.618;2022-07-15T07:58:22;18.00;89.90
15355;DHT22;7777;52.254;9.618;2022-07-15T08:00:49;18.00;89.90
15355;DHT22;7777;52.254;9.618;2022-07-15T08:03:17;18.00;89.50
15355;DHT22;7777;52.254;9.618;2022-07-15T08:05:43;18.10;89.60
15355;DHT22;7777;52.254;9.618;2022-07-15T08:08:16;18.10;88.40
15355;DHT22;7777;52.254;9.618;2022-07-15T08:10:45;18.20;87.80
15355;DHT22;7777;52.254;9.618;2022-07-15T08:13:12;18.20;88.10
15355;DHT22;7777;52.254;9.618;2022-07-15T08:15:40;18.20;88.60
15355;DHT22;7777;52.254;9.618;2022-07-15T08:18:07;18.30;88.00
15355;DHT22;7777;52.254;9.618;2022-07-15T08:20:33;18.30;87.30
15355;DHT22;7777;52.254;9.618;2022-07-15T08:22:59;18.30;86.80
15355;DHT22;7777;52.254;9.618;2022-07-15T08:25:26;18.30;87.10
15355;DHT22;7777;52.254;9.618;2022-07-15T08:27:54;18.40;87.10
15355;DHT22;7777;52.254;9.618;2022-07-15T08:30:20;18.40;86.60
15355;DHT22;7777;52.254;9.618;2022-07-15T08:32:46;18.50;85.90
15355;DHT22;7777;52.254;9.618;2022-07-15T08:35:12;18.50;86.70
15355;DHT22;7777;52.254;9.618;2022-07-15T08:37:37;18.60;86.10
15355;DHT22;7777;52.254;9.618;2022-07-15T08:40:04;18.60;86.00
15355;DHT22;7777;52.254;9.618;2022-07-15T08:42:33;18.60;85.40
15355;DHT22;7777;52.254;9.618;2022-07-15T08:44:59;18.60;85.60
15355;DHT22;7777;52.254;9.618;2022-07-15T08:47:25;18.70;85.70
15355;DHT22;7777;52.254;9.618;2022-07-15T08:49:55;18.70;86.20
15355;DHT22;7777;52.254;9.618;2022-07-15T08:52:24;18.70;85.10
15355;DHT22;7777;52.254;9.618;2022-07-15T08:54:50;18.70;83.90
15355;DHT22;7777;52.254;9.618;2022-07-15T08:57:17;18.70;84.10
15355;DHT22;7777;52.254;9.618;2022-07-15T08:59:43;18.70;83.50
15355;DHT22;7777;52.254;9.618;2022-07-15T09:02:12;18.70;83.00
15355;DHT22;7777;52.254;9.618;2022-07-15T09:05:21;18.70;83.20
15355;DHT22;7777;52.254;9.618;2022-07-15T09:08:03;18.70;84.30
15355;DHT22;7777;52.254;9.618;2022-07-15T09:10:47;18.70;84.20
15355;DHT22;7777;52.254;9.618;2022-07-15T09:15:55;18.70;83.70
15355;DHT22;7777;52.254;9.618;2022-07-15T09:18:26;18.80;83.50
15355;DHT22;7777;52.254;9.618;2022-07-15T09:20:54;18.80;83.20
15355;DHT22;7777;52.254;9.618;2022-07-15T09:23:28;18.80;83.80
15355;DHT22;7777;52.254;9.618;2022-07-15T09:25:57;18.80;83.80
15355;DHT22;7777;52.254;9.618;2022-07-15T09:28:40;18.90;84.00
15355;DHT22;7777;52.254;9.618;2022-07-15T09:31:07;18.90;83.00
15355;DHT22;7777;52.254;9.618;2022-07-15T09:33:59;18.90;83.00
15355;DHT22;7777;52.254;9.618;2022-07-15T09:36:30;18.90;83.00
15355;DHT22;7777;52.254;9.618;2022-07-15T09:39:00;18.90;82.80
15355;DHT22;7777;52.254;9.618;2022-07-15T09:47:02;18.90;83.00
15355;DHT22;7777;52.254;9.618;2022-07-15T09:51:58;18.90;83.30
15355;DHT22;7777;52.254;9.618;2022-07-15T09:54:31;18.90;82.60
15355;DHT22;7777;52.254;9.618;2022-07-15T09:57:00;19.00;83.40
15355;DHT22;7777;52.254;9.618;2022-07-15T09:59:28;19.00;82.70
15355;DHT22;7777;52.254;9.618;2022-07-15T10:01:55;19.00;82.90
15355;DHT22;7777;52.254;9.618;2022-07-15T10:04:23;19.10;83.00
15355;DHT22;7777;52.254;9.618;2022-07-15T10:06:52;19.10;83.00
15355;DHT22;7777;52.254;9.618;2022-07-15T10:09:22;19.10;82.60
15355;DHT22;7777;52.254;9.618;2022-07-15T10:11:51;19.10;82.50
15355;DHT22;7777;52.254;9.618;2022-07-15T10:14:40;19.20;82.90
15355;DHT22;7777;52.254;9.618;2022-07-15T10:29:07;19.30;83.10
15355;DHT22;7777;52.254;9.618;2022-07-15T10:31:34;19.30;82.80
15355;DHT22;7777;52.254;9.618;2022-07-15T10:39:22;19.30;82.80
15355;DHT22;7777;52.254;9.618;2022-07-15T10:42:03;19.30;83.50
15355;DHT22;7777;52.254;9.618;2022-07-15T10:44:30;19.30;84.10
15355;DHT22;7777;52.254;9.618;2022-07-15T10:49:40;19.30;83.70
15355;DHT22;7777;52.254;9.618;2022-07-15T10:52:17;19.30;83.90
15355;DHT22;7777;52.254;9.618;2022-07-15T10:57:17;19.30;83.90
15355;DHT22;7777;52.254;9.618;2022-07-15T10:59:55;19.30;84.00
15355;DHT22;7777;52.254;9.618;2022-07-15T11:02:24;19.30;84.00
15355;DHT22;7777;52.254;9.618;2022-07-15T11:04:51;19.30;84.00
15355;DHT22;7777;52.254;9.618;2022-07-15T11:07:19;19.40;84.30
15355;DHT22;7777;52.254;9.618;2022-07-15T11:09:49;19.40;84.60
15355;DHT22;7777;52.254;9.618;2022-07-15T11:15:05;19.50;84.60
15355;DHT22;7777;52.254;9.618;2022-07-15T11:17:43;19.60;84.20
15355;DHT22;7777;52.254;9.618;2022-07-15T11:20:16;19.70;84.80
15355;DHT22;7777;52.254;9.618;2022-07-15T11:22:48;19.80;84.80
15355;DHT22;7777;52.254;9.618;2022-07-15T11:28:12;20.10;85.30
15355;DHT22;7777;52.254;9.618;2022-07-15T11:30:45;20.20;85.40
15355;DHT22;7777;52.254;9.618;2022-07-15T11:33:20;20.20;84.40
15355;DHT22;7777;52.254;9.618;2022-07-15T11:35:58;20.30;84.20
15355;DHT22;7777;52.254;9.618;2022-07-15T11:38:28;20.40;84.20
15355;DHT22;7777;52.254;9.618;2022-07-15T11:41:00;20.40;84.00
15355;DHT22;7777;52.254;9.618;2022-07-15T11:43:49;20.50;83.20
15355;DHT22;7777;52.254;9.618;2022-07-15T11:46:45;20.70;84.20
15355;DHT22;7777;52.254;9.618;2022-07-15T11:49:31;20.80;79.90
15355;DHT22;7777;52.254;9.618;2022-07-15T11:52:02;20.90;82.40
15355;DHT22;7777;52.254;9.618;2022-07-15T11:54:29;21.10;81.70
15355;DHT22;7777;52.254;9.618;2022-07-15T11:56:58;21.20;81.20
15355;DHT22;7777;52.254;9.618;2022-07-15T11:59:25;21.20;81.20
15355;DHT22;7777;52.254;9.618;2022-07-15T12:02:03;21.30;81.90
15355;DHT22;7777;52.254;9.618;2022-07-15T12:04:30;21.40;82.30
15355;DHT22;7777;52.254;9.618;2022-07-15T12:06:56;21.30;80.80
15355;DHT22;7777;52.254;9.618;2022-07-15T12:09:24;21.30;81.40
15355;DHT22;7777;52.254;9.618;2022-07-15T12:11:50;21.30;80.90
15355;DHT22;7777;52.254;9.618;2022-07-15T12:14:20;21.20;81.20
15355;DHT22;7777;52.254;9.618;2022-07-15T12:16:52;21.30;81.90
15355;DHT22;7777;52.254;9.618;2022-07-15T12:19:22;21.30;82.20
15355;DHT22;7777;52.254;9.618;2022-07-15T12:21:51;21.30;81.50
15355;DHT22;7777;52.254;9.618;2022-07-15T12:24:24;21.30;80.70
15355;DHT22;7777;52.254;9.618;2022-07-15T12:29:21;21.30;80.60
15355;DHT22;7777;52.254;9.618;2022-07-15T12:32:08;21.20;80.30
15355;DHT22;7777;52.254;9.618;2022-07-15T12:40:11;21.00;79.50
15355;DHT22;7777;52.254;9.618;2022-07-15T12:42:47;20.90;79.90
15355;DHT22;7777;52.254;9.618;2022-07-15T12:48:06;20.80;80.10
15355;DHT22;7777;52.254;9.618;2022-07-15T12:53:08;20.70;80.70
15355;DHT22;7777;52.254;9.618;2022-07-15T12:55:42;20.70;80.10
15355;DHT22;7777;52.254;9.618;2022-07-15T12:58:11;20.80;80.80
15355;DHT22;7777;52.254;9.618;2022-07-15T13:00:39;20.80;80.80
15355;DHT22;7777;52.254;9.618;2022-07-15T13:03:11;20.90;81.10
15355;DHT22;7777;52.254;9.618;2022-07-15T13:05:40;20.90;81.00
15355;DHT22;7777;52.254;9.618;2022-07-15T13:08:15;20.90;80.80
15355;DHT22;7777;52.254;9.618;2022-07-15T13:10:45;20.90;80.50
15355;DHT22;7777;52.254;9.618;2022-07-15T13:13:13;20.90;81.00
15355;DHT22;7777;52.254;9.618;2022-07-15T13:15:41;20.90;81.20
15355;DHT22;7777;52.254;9.618;2022-07-15T13:18:07;21.00;81.40
15355;DHT22;7777;52.254;9.618;2022-07-15T13:20:33;21.00;80.80
15355;DHT22;7777;52.254;9.618;2022-07-15T13:22:59;21.10;81.60
15355;DHT22;7777;52.254;9.618;2022-07-15T13:25:26;21.10;81.30
15355;DHT22;7777;52.254;9.618;2022-07-15T13:27:54;21.10;81.30
15355;DHT22;7777;52.254;9.618;2022-07-15T13:30:20;21.20;80.90
15355;DHT22;7777;52.254;9.618;2022-07-15T13:32:45;21.20;80.30
15355;DHT22;7777;52.254;9.618;2022-07-15T13:35:13;21.10;79.00
15355;DHT22;7777;52.254;9.618;2022-07-15T13:37:41;21.00;79.40
15355;DHT22;7777;52.254;9.618;2022-07-15T13:40:09;21.00;79.50
15355;DHT22;7777;52.254;9.618;2022-07-15T13:42:37;20.90;79.70
15355;DHT22;7777;52.254;9.618;2022-07-15T13:45:05;20.80;79.20
15355;DHT22;7777;52.254;9.618;2022-07-15T13:47:31;20.70;79.80
15355;DHT22;7777;52.254;9.618;2022-07-15T13:49:57;20.70;81.00
15355;DHT22;7777;52.254;9.618;2022-07-15T13:52:43;20.60;81.50
15355;DHT22;7777;52.254;9.618;2022-07-15T13:55:10;20.50;81.80
15355;DHT22;7777;52.254;9.618;2022-07-15T13:57:37;20.40;81.90
15355;DHT22;7777;52.254;9.618;2022-07-15T14:00:08;20.30;82.10
15355;DHT22;7777;52.254;9.618;2022-07-15T14:02:37;20.20;83.90
15355;DHT22;7777;52.254;9.618;2022-07-15T14:05:05;20.20;84.60
15355;DHT22;7777;52.254;9.618;2022-07-15T14:07:31;20.20;85.70
15355;DHT22;7777;52.254;9.618;2022-07-15T14:09:58;20.10;86.10
15355;DHT22;7777;52.254;9.618;2022-07-15T14:12:23;20.00;86.40
15355;DHT22;7777;52.254;9.618;2022-07-15T14:14:49;19.90;86.90
15355;DHT22;7777;52.254;9.618;2022-07-15T14:17:15;19.90;87.10
15355;DHT22;7777;52.254;9.618;2022-07-15T14:19:41;19.80;86.40
15355;DHT22;7777;52.254;9.618;2022-07-15T14:22:07;19.80;86.50
15355;DHT22;7777;52.254;9.618;2022-07-15T14:24:33;19.80;86.20
15355;DHT22;7777;52.254;9.618;2022-07-15T14:26:59;19.80;86.00
15355;DHT22;7777;52.254;9.618;2022-07-15T14:29:24;19.80;86.20
15355;DHT22;7777;52.254;9.618;2022-07-15T14:31:51;19.80;86.20
15355;DHT22;7777;52.254;9.618;2022-07-15T14:34:17;19.90;85.90
15355;DHT22;7777;52.254;9.618;2022-07-15T14:36:43;19.90;86.40
15355;DHT22;7777;52.254;9.618;2022-07-15T14:39:09;20.00;86.00
15355;DHT22;7777;52.254;9.618;2022-07-15T14:41:35;20.00;85.60
15355;DHT22;7777;52.254;9.618;2022-07-15T14:44:01;20.10;85.80
15355;DHT22;7777;52.254;9.618;2022-07-15T14:46:28;20.20;85.40
15355;DHT22;7777;52.254;9.618;2022-07-15T14:48:54;20.30;85.30
15355;DHT22;7777;52.254;9.618;2022-07-15T14:51:20;20.30;84.90
15355;DHT22;7777;52.254;9.618;2022-07-15T14:53:46;20.40;84.90
15355;DHT22;7777;52.254;9.618;2022-07-15T14:56:12;20.40;84.40
15355;DHT22;7777;52.254;9.618;2022-07-15T14:58:57;20.50;84.20
15355;DHT22;7777;52.254;9.618;2022-07-15T15:01:41;20.50;84.10
15355;DHT22;7777;52.254;9.618;2022-07-15T15:04:07;20.50;84.30
15355;DHT22;7777;52.254;9.618;2022-07-15T15:06:32;20.50;84.10
15355;DHT22;7777;52.254;9.618;2022-07-15T15:08:58;20.60;84.30
15355;DHT22;7777;52.254;9.618;2022-07-15T15:11:25;20.60;83.90
15355;DHT22;7777;52.254;9.618;2022-07-15T15:14:09;20.60;83.80
15355;DHT22;7777;52.254;9.618;2022-07-15T15:16:41;20.60;83.70
15355;DHT22;7777;52.254;9.618;2022-07-15T15:19:10;20.60;83.90
15355;DHT22;7777;52.254;9.618;2022-07-15T15:21:36;20.60;83.50
15355;DHT22;7777;52.254;9.618;2022-07-15T15:24:03;20.60;83.20
15355;DHT22;7777;52.254;9.618;2022-07-15T15:26:29;20.70;83.30
15355;DHT22;7777;52.254;9.618;2022-07-15T15:28:57;20.60;82.90
15355;DHT22;7777;52.254;9.618;2022-07-15T15:31:28;20.70;83.70
15355;DHT22;7777;52.254;9.618;2022-07-15T15:33:54;20.70;82.90
15355;DHT22;7777;52.254;9.618;2022-07-15T15:36:20;20.70;83.50
15355;DHT22;7777;52.254;9.618;2022-07-15T15:38:46;20.70;83.00
15355;DHT22;7777;52.254;9.618;2022-07-15T15:41:13;20.70;82.40
15355;DHT22;7777;52.254;9.618;2022-07-15T15:43:38;20.70;82.10
15355;DHT22;7777;52.254;9.618;2022-07-15T15:46:04;20.70;81.80
15355;DHT22;7777;52.254;9.618;2022-07-15T15:48:30;20.70;82.40
15355;DHT22;7777;52.254;9.618;2022-07-15T15:50:57;20.70;82.50
15355;DHT22;7777;52.254;9.618;2022-07-15T15:53:23;20.70;82.10
15355;DHT22;7777;52.254;9.618;2022-07-15T15:55:49;20.60;81.90
15355;DHT22;7777;52.254;9.618;2022-07-15T15:58:15;20.60;81.70
15355;DHT22;7777;52.254;9.618;2022-07-15T16:00:41;20.50;81.70
15355;DHT22;7777;52.254;9.618;2022-07-15T16:03:06;20.50;81.80
15355;DHT22;7777;52.254;9.618;2022-07-15T16:05:32;20.40;82.00
15355;DHT22;7777;52.254;9.618;2022-07-15T16:07:58;20.40;81.90
15355;DHT22;7777;52.254;9.618;2022-07-15T16:10:24;20.40;81.90
15355;DHT22;7777;52.254;9.618;2022-07-15T16:12:50;20.40;81.40
15355;DHT22;7777;52.254;9.618;2022-07-15T16:15:16;20.40;81.30
15355;DHT22;7777;52.254;9.618;2022-07-15T16:17:42;20.30;81.30
15355;DHT22;7777;52.254;9.618;2022-07-15T16:20:08;20.30;81.40
15355;DHT22;7777;52.254;9.618;2022-07-15T16:22:34;20.30;81.90
15355;DHT22;7777;52.254;9.618;2022-07-15T16:25:27;20.30;81.20
15355;DHT22;7777;52.254;9.618;2022-07-15T16:27:57;20.30;81.60
15355;DHT22;7777;52.254;9.618;2022-07-15T16:30:24;20.30;81.40
15355;DHT22;7777;52.254;9.618;2022-07-15T16:32:51;20.30;81.90
15355;DHT22;7777;52.254;9.618;2022-07-15T16:35:19;20.30;81.50
15355;DHT22;7777;52.254;9.618;2022-07-15T16:37:50;20.20;81.20
15355;DHT22;7777;52.254;9.618;2022-07-15T16:40:17;20.20;81.30
15355;DHT22;7777;52.254;9.618;2022-07-15T16:42:43;20.20;81.10